createdAt,value
2022-07-25T00:01:47.679Z,22.65
2022-07-25T00:04:14.850Z,22.66
2022-07-25T00:06:43.110Z,22.65
2022-07-25T00:09:10.601Z,22.63
2022-07-25T00:11:38.186Z,22.63
2022-07-25T00:14:06.559Z,22.60
2022-07-25T00:16:33.707Z,22.63
2022-07-25T00:19:01.114Z,22.65
2022-07-25T00:21:28.056Z,22.66
2022-07-25T00:23:54.910Z,22.67
2022-07-25T00:26:21.913Z,22.66
2022-07-25T00:28:48.739Z,22.66
2022-07-25T00:31:15.730Z,22.67
2022-07-25T00:33:42.808Z,22.65
2022-07-25T00:36:09.943Z,22.61
2022-07-25T00:38:36.878Z,22.59
2022-07-25T00:41:04.581Z,22.57
2022-07-25T00:43:31.739Z,22.58
2022-07-25T00:45:59.519Z,22.58
2022-07-25T00:48:31.231Z,22.56
2022-07-25T00:50:59.190Z,22.47
2022-07-25T00:53:26.268Z,22.42
2022-07-25T00:55:53.526Z,22.38
2022-07-25T00:58:20.461Z,22.37
2022-07-25T01:00:48.029Z,22.39
2022-07-25T01:03:15.758Z,22.39
2022-07-25T01:05:43.224Z,22.36
2022-07-25T01:08:10.479Z,22.34
2022-07-25T01:10:37.959Z,22.27
2022-07-25T01:13:05.456Z,22.24
2022-07-25T01:15:32.443Z,22.22
2022-07-25T01:17:59.645Z,22.22
2022-07-25T01:20:28.574Z,22.21
2022-07-25T01:22:56.634Z,22.21
2022-07-25T01:25:24.750Z,22.24
2022-07-25T01:27:55.798Z,22.24
2022-07-25T01:30:23.720Z,22.24
2022-07-25T01:32:51.116Z,22.23
2022-07-25T01:35:18.158Z,22.20
2022-07-25T01:37:45.420Z,22.18
2022-07-25T01:40:14.234Z,22.19
2022-07-25T01:42:41.966Z,22.14
2022-07-25T01:45:09.569Z,22.13
2022-07-25T01:47:36.679Z,22.11
2022-07-25T01:50:04.853Z,22.15
2022-07-25T01:52:31.791Z,22.10
2022-07-25T01:54:58.841Z,22.05
2022-07-25T01:57:30.824Z,22.03
2022-07-25T01:59:58.263Z,22.03
2022-07-25T02:02:25.393Z,22.05
2022-07-25T02:04:53.632Z,22.04
2022-07-25T02:07:20.879Z,22.04
2022-07-25T02:09:47.713Z,22.01
2022-07-25T02:12:14.590Z,22.01
2022-07-25T02:14:41.633Z,21.97
2022-07-25T02:17:08.652Z,21.95
2022-07-25T02:19:36.583Z,21.90
2022-07-25T02:22:03.808Z,21.91
2022-07-25T02:24:30.870Z,21.90
2022-07-25T02:26:58.039Z,21.85
2022-07-25T02:29:25.470Z,21.74
2022-07-25T02:31:53.298Z,21.69
2022-07-25T02:34:20.290Z,21.64
2022-07-25T02:36:47.425Z,21.61
2022-07-25T02:39:14.436Z,21.57
2022-07-25T02:41:41.287Z,21.52
2022-07-25T02:44:08.371Z,21.54
2022-07-25T02:46:35.681Z,21.56
2022-07-25T02:49:02.967Z,21.60
2022-07-25T02:51:30.118Z,21.64
2022-07-25T02:53:58.459Z,21.68
2022-07-25T02:56:29.799Z,21.68
2022-07-25T02:58:57.545Z,21.67
2022-07-25T03:01:24.512Z,21.66
2022-07-25T03:03:51.636Z,21.64
2022-07-25T03:06:18.630Z,21.68
2022-07-25T03:08:45.535Z,21.71
2022-07-25T03:11:13.891Z,21.70
2022-07-25T03:13:40.789Z,21.70
2022-07-25T03:16:08.282Z,21.69
2022-07-25T03:18:35.234Z,21.69
2022-07-25T03:21:02.453Z,21.68
2022-07-25T03:23:31.146Z,21.67
2022-07-25T03:25:58.156Z,21.68
2022-07-25T03:28:25.406Z,21.61
2022-07-25T03:30:53.390Z,21.63
2022-07-25T03:33:20.290Z,21.62
2022-07-25T03:35:47.274Z,21.62
2022-07-25T03:38:14.455Z,21.61
2022-07-25T03:40:41.300Z,21.56
2022-07-25T03:43:08.184Z,21.56
2022-07-25T03:45:35.428Z,21.54
2022-07-25T03:48:02.753Z,21.53
2022-07-25T03:50:29.674Z,21.53
2022-07-25T03:52:56.519Z,21.54
2022-07-25T03:55:23.513Z,21.55
2022-07-25T03:57:51.086Z,21.56
2022-07-25T04:00:18.135Z,21.56
2022-07-25T04:02:45.227Z,21.56
2022-07-25T04:05:12.439Z,21.56
2022-07-25T04:07:39.738Z,21.55
2022-07-25T04:10:08.011Z,21.56
2022-07-25T04:12:35.251Z,21.58
2022-07-25T04:15:02.333Z,21.57
2022-07-25T04:17:29.343Z,21.55
2022-07-25T04:19:57.571Z,21.52
2022-07-25T04:22:24.663Z,21.53
2022-07-25T04:24:58.726Z,21.53
2022-07-25T04:27:25.938Z,21.53
2022-07-25T04:29:53.032Z,21.52
2022-07-25T04:32:23.261Z,21.52
2022-07-25T04:34:58.934Z,21.53
2022-07-25T04:37:26.080Z,21.51
2022-07-25T04:39:53.109Z,21.52
2022-07-25T04:42:20.116Z,21.50
2022-07-25T04:44:55.733Z,21.50
2022-07-25T04:47:22.879Z,21.49
2022-07-25T04:49:50.053Z,21.45
2022-07-25T04:52:17.021Z,21.43
2022-07-25T04:54:44.222Z,21.41
2022-07-25T04:57:11.270Z,21.42
2022-07-25T04:59:38.300Z,21.40
2022-07-25T05:02:05.524Z,21.40
2022-07-25T05:04:32.641Z,21.38
2022-07-25T05:07:02.463Z,21.33
2022-07-25T05:09:29.407Z,21.31
2022-07-25T05:11:56.572Z,21.31
2022-07-25T05:14:23.934Z,21.32
2022-07-25T05:16:50.978Z,21.34
2022-07-25T05:19:17.877Z,21.34
2022-07-25T05:21:44.675Z,21.38
2022-07-25T05:24:12.234Z,21.39
2022-07-25T05:26:39.130Z,21.38
2022-07-25T05:29:06.125Z,21.35
2022-07-25T05:31:32.942Z,21.28
2022-07-25T05:33:59.805Z,21.27
2022-07-25T05:36:26.638Z,21.26
2022-07-25T05:38:54.360Z,21.28
2022-07-25T05:41:21.326Z,21.31
2022-07-25T05:43:49.014Z,21.30
2022-07-25T05:46:19.235Z,21.26
2022-07-25T05:48:46.353Z,21.28
2022-07-25T05:51:13.340Z,21.25
2022-07-25T05:53:40.286Z,21.21
2022-07-25T05:56:07.481Z,21.20
2022-07-25T05:58:34.346Z,21.22
2022-07-25T06:01:01.299Z,21.26
2022-07-25T06:03:28.237Z,21.28
2022-07-25T06:05:56.874Z,21.30
2022-07-25T06:08:24.155Z,21.27
2022-07-25T06:10:51.828Z,21.28
2022-07-25T06:13:20.762Z,21.27
2022-07-25T06:15:47.798Z,21.28
2022-07-25T06:18:15.367Z,21.31
2022-07-25T06:20:42.786Z,21.28
2022-07-25T06:23:10.213Z,21.27
2022-07-25T06:25:37.390Z,21.30
2022-07-25T06:28:04.705Z,21.30
2022-07-25T06:30:32.051Z,21.32
2022-07-25T06:32:59.201Z,21.37
2022-07-25T06:35:26.626Z,21.36
2022-07-25T06:37:54.039Z,21.37
2022-07-25T06:40:21.082Z,21.32
2022-07-25T06:42:48.309Z,21.28
2022-07-25T06:45:15.922Z,21.28
2022-07-25T06:47:44.374Z,21.27
2022-07-25T06:50:13.891Z,21.28
2022-07-25T06:52:41.996Z,21.29
2022-07-25T06:55:10.705Z,21.34
2022-07-25T06:57:38.084Z,21.36
2022-07-25T07:00:09.827Z,21.30
2022-07-25T07:02:47.989Z,21.28
2022-07-25T07:05:15.012Z,21.28
2022-07-25T07:07:47.449Z,21.29
2022-07-25T07:10:14.588Z,21.28
2022-07-25T07:12:41.574Z,21.22
2022-07-25T07:15:09.388Z,21.20
2022-07-25T07:17:36.966Z,21.21
2022-07-25T07:20:07.467Z,21.22
2022-07-25T07:22:47.686Z,21.23
2022-07-25T07:25:18.803Z,21.27
2022-07-25T07:27:47.864Z,21.30
2022-07-25T07:30:16.790Z,21.34
2022-07-25T07:32:47.360Z,21.34
2022-07-25T07:35:19.463Z,21.34
2022-07-25T07:37:46.992Z,21.36
2022-07-25T07:40:18.383Z,21.41
2022-07-25T07:42:49.965Z,21.45
2022-07-25T07:45:22.944Z,21.50
2022-07-25T07:47:52.850Z,21.50
2022-07-25T07:50:22.659Z,21.48
2022-07-25T07:52:50.830Z,21.49
2022-07-25T07:55:37.060Z,21.47
2022-07-25T07:58:04.896Z,21.49
2022-07-25T08:00:32.137Z,21.55
2022-07-25T08:03:00.600Z,21.55
2022-07-25T08:05:36.418Z,21.51
2022-07-25T08:08:05.790Z,21.52
2022-07-25T08:10:36.639Z,21.44
2022-07-25T08:13:16.429Z,21.40
2022-07-25T08:15:46.063Z,21.36
2022-07-25T08:18:17.616Z,21.39
2022-07-25T08:20:46.482Z,21.45
2022-07-25T08:23:14.004Z,21.57
2022-07-25T08:25:41.641Z,21.67
2022-07-25T08:28:09.451Z,21.76
2022-07-25T08:30:38.323Z,21.83
2022-07-25T08:33:11.714Z,21.85
2022-07-25T08:35:40.354Z,21.89
2022-07-25T08:38:09.060Z,21.85
2022-07-25T08:40:36.075Z,21.87
2022-07-25T08:43:05.071Z,21.86
2022-07-25T08:45:35.117Z,21.82
2022-07-25T08:48:02.184Z,21.82
2022-07-25T08:50:30.456Z,21.85
2022-07-25T08:53:16.541Z,21.92
2022-07-25T08:55:46.351Z,21.98
2022-07-25T08:58:15.961Z,21.98
2022-07-25T09:00:44.072Z,21.96
2022-07-25T09:03:12.346Z,21.98
2022-07-25T09:05:40.226Z,21.99
2022-07-25T09:08:10.548Z,22.02
2022-07-25T09:10:39.444Z,22.07
2022-07-25T09:13:14.590Z,22.14
2022-07-25T09:15:50.250Z,22.23
2022-07-25T09:18:20.163Z,22.28
2022-07-25T09:20:58.850Z,22.32
2022-07-25T09:23:37.397Z,22.35
2022-07-25T09:26:09.875Z,22.39
2022-07-25T09:28:47.468Z,22.41
2022-07-25T09:31:17.029Z,22.42
2022-07-25T09:33:56.845Z,22.45
2022-07-25T09:36:24.302Z,22.47
2022-07-25T09:38:55.591Z,22.54
2022-07-25T09:41:23.629Z,22.60
2022-07-25T09:43:50.861Z,22.64
2022-07-25T09:46:17.749Z,22.68
2022-07-25T09:48:45.635Z,22.76
2022-07-25T09:51:12.586Z,22.82
2022-07-25T09:53:41.006Z,22.84
2022-07-25T09:56:08.689Z,22.88
2022-07-25T09:58:36.205Z,22.91
2022-07-25T10:01:06.349Z,22.91
2022-07-25T10:03:50.696Z,22.87
2022-07-25T10:06:22.520Z,22.90
2022-07-25T10:08:50.928Z,22.89
2022-07-25T10:11:25.994Z,22.90
2022-07-25T10:13:57.329Z,22.90
2022-07-25T10:16:26.385Z,22.91
2022-07-25T10:18:58.687Z,22.93
2022-07-25T10:21:28.576Z,22.93
2022-07-25T10:24:06.651Z,22.92
2022-07-25T10:26:36.619Z,22.91
2022-07-25T10:29:10.073Z,22.84
2022-07-25T10:31:39.990Z,22.81
2022-07-25T10:34:10.614Z,22.82
2022-07-25T10:36:46.328Z,22.85
2022-07-25T10:39:16.105Z,22.90
2022-07-25T10:41:54.954Z,22.94
2022-07-25T10:44:22.225Z,22.96
2022-07-25T10:46:50.813Z,22.97
2022-07-25T10:49:19.191Z,22.97
2022-07-25T10:51:56.760Z,22.97
2022-07-25T10:54:23.886Z,22.93
2022-07-25T10:56:58.242Z,22.83
2022-07-25T10:59:29.312Z,22.77
2022-07-25T11:01:56.219Z,22.80
2022-07-25T11:04:24.123Z,22.81
2022-07-25T11:06:51.403Z,22.86
2022-07-25T11:09:27.328Z,22.91
2022-07-25T11:11:59.489Z,22.91
2022-07-25T11:14:36.485Z,22.89
2022-07-25T11:17:18.870Z,22.86
2022-07-25T11:20:01.423Z,22.83
2022-07-25T11:22:30.229Z,22.80
2022-07-25T11:25:03.640Z,22.80
2022-07-25T11:27:33.313Z,22.78
2022-07-25T11:30:15.578Z,22.75
2022-07-25T11:32:44.780Z,22.73
2022-07-25T11:35:14.246Z,22.68
2022-07-25T11:37:43.616Z,22.63
2022-07-25T11:40:11.962Z,22.65
2022-07-25T11:42:45.319Z,22.64
2022-07-25T11:45:20.826Z,22.64
2022-07-25T11:48:05.106Z,22.61
2022-07-25T11:50:35.499Z,22.59
2022-07-25T11:53:04.887Z,22.58
2022-07-25T11:55:40.473Z,22.58
2022-07-25T11:58:07.742Z,22.57
2022-07-25T12:00:40.369Z,22.57
2022-07-25T12:03:08.959Z,22.52
2022-07-25T12:05:36.473Z,22.50
2022-07-25T12:08:20.258Z,22.56
2022-07-25T12:10:51.703Z,22.61
2022-07-25T12:13:27.314Z,22.64
2022-07-25T12:15:56.504Z,22.68
2022-07-25T12:18:23.558Z,22.73
2022-07-25T12:20:50.711Z,22.75
2022-07-25T12:23:17.902Z,22.80
2022-07-25T12:25:46.627Z,22.81
2022-07-25T12:28:14.703Z,22.85
2022-07-25T12:30:43.934Z,22.90
2022-07-25T12:33:15.181Z,22.99
2022-07-25T12:35:43.496Z,23.10
2022-07-25T12:38:11.543Z,23.23
2022-07-25T12:40:39.313Z,23.32
2022-07-25T12:43:06.840Z,23.46
2022-07-25T12:45:33.969Z,23.56
2022-07-25T12:48:00.974Z,23.57
2022-07-25T12:50:27.855Z,23.50
2022-07-25T12:52:55.215Z,23.52
2022-07-25T12:55:22.266Z,23.58
2022-07-25T12:57:50.453Z,23.65
2022-07-25T13:00:20.101Z,23.72
2022-07-25T13:02:48.455Z,23.79
2022-07-25T13:05:15.395Z,23.86
2022-07-25T13:07:42.227Z,23.97
2022-07-25T13:10:09.676Z,24.06
2022-07-25T13:12:37.605Z,24.14
2022-07-25T13:15:11.568Z,24.16
2022-07-25T13:17:40.654Z,24.17
2022-07-25T13:20:08.609Z,24.14
2022-07-25T13:22:35.711Z,24.08
2022-07-25T13:25:06.127Z,24.00
2022-07-25T13:27:32.984Z,24.01
2022-07-25T13:29:59.985Z,24.05
2022-07-25T13:32:28.809Z,24.11
2022-07-25T13:35:02.881Z,24.19
2022-07-25T13:37:30.339Z,24.26
2022-07-25T13:39:59.403Z,24.32
2022-07-25T13:42:26.564Z,24.36
2022-07-25T13:45:00.955Z,24.37
2022-07-25T13:47:30.385Z,24.44
2022-07-25T13:49:57.653Z,24.52
2022-07-25T13:52:24.513Z,24.56
2022-07-25T13:55:03.139Z,24.58
2022-07-25T13:57:33.921Z,24.53
2022-07-25T14:00:01.132Z,24.50
2022-07-25T14:02:30.843Z,24.46
2022-07-25T14:05:04.355Z,24.42
2022-07-25T14:07:31.336Z,24.36
2022-07-25T14:09:59.311Z,24.31
2022-07-25T14:12:26.181Z,24.28
2022-07-25T14:15:02.232Z,24.25
2022-07-25T14:17:30.493Z,24.26
2022-07-25T14:19:58.017Z,24.29
2022-07-25T14:22:24.802Z,24.27
2022-07-25T14:25:01.466Z,24.29
2022-07-25T14:27:28.505Z,24.29
2022-07-25T14:29:55.580Z,24.26
2022-07-25T14:32:23.616Z,24.17
2022-07-25T14:35:07.023Z,24.13
2022-07-25T14:37:34.916Z,24.05
2022-07-25T14:40:03.073Z,23.98
2022-07-25T14:42:31.535Z,23.92
2022-07-25T14:45:07.459Z,23.87
2022-07-25T14:47:35.407Z,23.88
2022-07-25T14:50:02.251Z,23.90
2022-07-25T14:52:29.147Z,23.90
2022-07-25T14:55:03.490Z,23.86
2022-07-25T14:57:30.306Z,23.87
2022-07-25T14:59:57.178Z,23.90
2022-07-25T15:02:24.285Z,23.94
2022-07-25T15:05:00.419Z,23.99
2022-07-25T15:07:27.645Z,24.02
2022-07-25T15:09:54.596Z,24.10
2022-07-25T15:12:22.057Z,24.15
2022-07-25T15:15:01.999Z,24.16
2022-07-25T15:17:29.504Z,24.15
2022-07-25T15:19:56.948Z,24.15
2022-07-25T15:22:23.998Z,24.09
2022-07-25T15:25:34.870Z,24.05
2022-07-25T15:27:44.539Z,23.96
2022-07-25T15:30:11.962Z,23.92
2022-07-25T15:32:40.529Z,23.88
2022-07-25T15:35:08.557Z,23.87
2022-07-25T15:37:35.754Z,23.87
2022-07-25T15:40:03.422Z,23.88
2022-07-25T15:42:30.269Z,23.86
2022-07-25T15:45:30.218Z,23.86
2022-07-25T15:47:50.705Z,23.86
2022-07-25T15:50:18.945Z,23.86
2022-07-25T15:52:46.909Z,23.90
2022-07-25T15:55:13.766Z,23.96
2022-07-25T15:57:40.822Z,24.00
2022-07-25T16:00:09.693Z,24.04
2022-07-25T16:02:36.589Z,24.12
2022-07-25T16:05:04.735Z,24.18
2022-07-25T16:07:31.640Z,24.23
2022-07-25T16:09:59.051Z,24.25
2022-07-25T16:12:28.642Z,24.26
2022-07-25T16:15:01.724Z,24.24
2022-07-25T16:17:28.929Z,24.25
2022-07-25T16:19:56.113Z,24.25
2022-07-25T16:22:23.478Z,24.23
2022-07-25T16:25:04.730Z,24.23
2022-07-25T16:27:31.812Z,24.24
2022-07-25T16:30:00.268Z,24.23
2022-07-25T16:32:28.855Z,24.24
2022-07-25T16:35:07.222Z,24.26
2022-07-25T16:37:34.542Z,24.24
2022-07-25T16:40:01.421Z,24.23
2022-07-25T16:42:28.301Z,24.23
2022-07-25T16:45:00.440Z,24.24
2022-07-25T16:47:27.825Z,24.25
2022-07-25T16:49:55.023Z,24.25
2022-07-25T16:52:23.128Z,24.28
2022-07-25T16:55:04.044Z,24.27
2022-07-25T16:57:34.028Z,24.26
2022-07-25T17:00:01.147Z,24.25
2022-07-25T17:02:29.853Z,24.23
2022-07-25T17:05:02.592Z,24.19
2022-07-25T17:07:29.633Z,24.20
2022-07-25T17:09:56.474Z,24.18
2022-07-25T17:12:23.349Z,24.17
2022-07-25T17:14:56.442Z,24.14
2022-07-25T17:17:23.430Z,24.12
2022-07-25T17:19:50.702Z,24.09
2022-07-25T17:22:17.975Z,24.03
2022-07-25T17:24:53.023Z,23.97
2022-07-25T17:27:20.125Z,23.93
2022-07-25T17:29:47.341Z,23.89
2022-07-25T17:32:16.501Z,23.86
2022-07-25T17:34:43.548Z,23.84
2022-07-25T17:37:10.491Z,23.85
2022-07-25T17:39:38.111Z,23.85
2022-07-25T17:42:07.628Z,23.85
2022-07-25T17:44:35.178Z,23.88
2022-07-25T17:47:03.517Z,23.86
2022-07-25T17:49:30.837Z,23.83
2022-07-25T17:51:57.731Z,23.78
2022-07-25T17:54:24.776Z,23.77
2022-07-25T17:56:52.341Z,23.76
2022-07-25T17:59:19.671Z,23.74
2022-07-25T18:01:46.682Z,23.71
2022-07-25T18:04:14.729Z,23.67
2022-07-25T18:06:41.975Z,23.65
2022-07-25T18:09:08.929Z,23.62
2022-07-25T18:11:35.831Z,23.64
2022-07-25T18:14:02.861Z,23.65
2022-07-25T18:16:29.794Z,23.64
2022-07-25T18:18:56.770Z,23.64
2022-07-25T18:21:24.689Z,23.58
2022-07-25T18:23:51.986Z,23.53
2022-07-25T18:26:18.871Z,23.50
2022-07-25T18:28:45.812Z,23.48
2022-07-25T18:31:12.819Z,23.49
2022-07-25T18:33:39.693Z,23.47
2022-07-25T18:36:07.808Z,23.44
2022-07-25T18:38:35.717Z,23.38
2022-07-25T18:41:27.605Z,23.36
2022-07-25T18:43:51.824Z,23.35
2022-07-25T18:46:19.782Z,23.37
2022-07-25T18:48:47.780Z,23.39
2022-07-25T18:51:14.790Z,23.39
2022-07-25T18:53:45.957Z,23.38
2022-07-25T18:56:14.763Z,23.39
2022-07-25T18:58:41.633Z,23.39
2022-07-25T19:01:09.566Z,23.40
2022-07-25T19:03:37.888Z,23.38
2022-07-25T19:06:05.493Z,23.34
2022-07-25T19:08:32.835Z,23.33
2022-07-25T19:11:00.017Z,23.30
2022-07-25T19:13:48.279Z,23.30
2022-07-25T19:16:14.457Z,23.29
2022-07-25T19:18:42.073Z,23.28
2022-07-25T19:21:09.096Z,23.27
2022-07-25T19:23:36.210Z,23.24
2022-07-25T19:26:03.241Z,23.25
2022-07-25T19:28:30.275Z,23.24
2022-07-25T19:30:57.769Z,23.23
2022-07-25T19:33:25.273Z,23.19
2022-07-25T19:36:01.847Z,23.14
2022-07-25T19:38:28.822Z,23.08
2022-07-25T19:40:56.224Z,22.99
2022-07-25T19:43:23.272Z,22.96
2022-07-25T19:45:50.465Z,22.93
2022-07-25T19:48:18.244Z,22.92
2022-07-25T19:50:45.934Z,22.88
2022-07-25T19:53:13.048Z,22.87
2022-07-25T19:55:40.218Z,22.85
2022-07-25T19:58:08.831Z,22.81
2022-07-25T20:00:36.203Z,22.78
2022-07-25T20:03:04.560Z,22.78
2022-07-25T20:05:31.869Z,22.77
2022-07-25T20:07:59.011Z,22.73
2022-07-25T20:10:26.201Z,22.71
2022-07-25T20:12:54.994Z,22.68
2022-07-25T20:15:25.183Z,22.66
2022-07-25T20:17:52.276Z,22.65
2022-07-25T20:20:19.227Z,22.66
2022-07-25T20:22:48.080Z,22.70
2022-07-25T20:25:15.283Z,22.65
2022-07-25T20:27:42.320Z,22.56
2022-07-25T20:30:09.909Z,22.50
2022-07-25T20:32:37.158Z,22.39
2022-07-25T20:35:05.026Z,22.30
2022-07-25T20:37:31.900Z,22.21
2022-07-25T20:39:58.722Z,22.12
2022-07-25T20:42:25.586Z,22.08
2022-07-25T20:44:53.697Z,22.01
2022-07-25T20:47:20.661Z,21.94
2022-07-25T20:49:47.540Z,21.89
2022-07-25T20:52:14.586Z,21.75
2022-07-25T20:54:43.040Z,21.71
2022-07-25T20:57:11.706Z,21.70
2022-07-25T20:59:38.583Z,21.70
2022-07-25T21:02:05.862Z,21.65
2022-07-25T21:04:32.801Z,21.61
2022-07-25T21:06:59.638Z,21.61
2022-07-25T21:09:29.598Z,21.57
2022-07-25T21:11:59.524Z,21.55
2022-07-25T21:14:27.105Z,21.48
2022-07-25T21:16:54.358Z,21.44
2022-07-25T21:19:21.249Z,21.38
2022-07-25T21:21:48.758Z,21.37
2022-07-25T21:24:15.801Z,21.36
2022-07-25T21:26:43.185Z,21.37
2022-07-25T21:29:10.595Z,21.36
2022-07-25T21:31:37.986Z,21.34
2022-07-25T21:34:05.218Z,21.32
2022-07-25T21:36:32.246Z,21.30
2022-07-25T21:38:59.055Z,21.31
2022-07-25T21:41:25.908Z,21.26
2022-07-25T21:43:52.756Z,21.22
2022-07-25T21:46:19.715Z,21.19
2022-07-25T21:49:05.520Z,21.16
2022-07-25T21:51:40.456Z,21.11
2022-07-25T21:54:08.114Z,21.10
2022-07-25T21:56:35.035Z,21.10
2022-07-25T21:59:02.116Z,21.09
2022-07-25T22:01:29.064Z,21.07
2022-07-25T22:03:56.160Z,21.05
2022-07-25T22:06:23.004Z,21.06
2022-07-25T22:08:49.847Z,21.04
2022-07-25T22:11:38.595Z,20.97
2022-07-25T22:14:03.733Z,20.95
2022-07-25T22:16:30.709Z,20.92
2022-07-25T22:18:57.725Z,20.85
2022-07-25T22:21:24.624Z,20.72
2022-07-25T22:23:51.497Z,20.64
2022-07-25T22:26:20.456Z,20.59
2022-07-25T22:28:48.387Z,20.56
2022-07-25T22:31:15.547Z,20.49
2022-07-25T22:33:42.532Z,20.42
2022-07-25T22:36:09.632Z,20.37
2022-07-25T22:38:36.548Z,20.32
2022-07-25T22:41:03.490Z,20.29
2022-07-25T22:43:56.677Z,20.27
2022-07-25T22:46:17.449Z,20.21
2022-07-25T22:48:44.363Z,20.16
2022-07-25T22:51:12.094Z,20.08
2022-07-25T22:53:38.985Z,20.05
2022-07-25T22:56:06.184Z,20.02
2022-07-25T22:58:33.038Z,20.00
2022-07-25T23:00:59.973Z,19.96
2022-07-25T23:03:29.741Z,19.94
2022-07-25T23:06:00.110Z,19.91
2022-07-25T23:08:27.101Z,19.85
2022-07-25T23:10:54.104Z,19.84
2022-07-25T23:13:21.013Z,19.82
2022-07-25T23:15:49.466Z,19.84
2022-07-25T23:18:17.412Z,19.86
2022-07-25T23:20:44.257Z,19.89
2022-07-25T23:23:11.175Z,19.89
2022-07-25T23:25:38.065Z,19.91
2022-07-25T23:28:05.318Z,19.91
2022-07-25T23:30:37.998Z,19.93
2022-07-25T23:33:07.408Z,19.99
2022-07-25T23:35:34.839Z,19.96
2022-07-25T23:38:01.968Z,19.93
2022-07-25T23:40:28.850Z,19.89
2022-07-25T23:42:55.727Z,19.84
2022-07-25T23:45:24.282Z,19.80
2022-07-25T23:47:54.995Z,19.75
2022-07-25T23:50:22.953Z,19.70
2022-07-25T23:52:50.073Z,19.69
2022-07-25T23:55:16.943Z,19.68
2022-07-25T23:57:43.910Z,19.70
